sensor_id;sensor_type;location;lat;lon;timestamp;temperature;humidity
21425;DHT22;10873;51.132;16.848;2024-02-21T00:00:51;23.40;52.50
21425;DHT22;10873;51.132;16.848;2024-02-21T00:03:37;23.40;52.40
21425;DHT22;10873;51.132;16.848;2024-02-21T00:06:04;23.40;52.40
21425;DHT22;10873;51.132;16.848;2024-02-21T00:08:30;23.40;52.30
21425;DHT22;10873;51.132;16.848;2024-02-21T00:10:56;23.40;52.30
21425;DHT22;10873;51.132;16.848;2024-02-21T00:13:23;23.40;52.30
21425;DHT22;10873;51.132;16.848;2024-02-21T00:15:48;23.40;52.20
21425;DHT22;10873;51.132;16.848;2024-02-21T00:18:15;23.40;52.20
21425;DHT22;10873;51.132;16.848;2024-02-21T00:20:41;23.40;52.20
21425;DHT22;10873;51.132;16.848;2024-02-21T00:23:07;23.40;52.30
21425;DHT22;10873;51.132;16.848;2024-02-21T00:25:33;23.40;52.20
21425;DHT22;10873;51.132;16.848;2024-02-21T00:28:00;23.40;52.30
21425;DHT22;10873;51.132;16.848;2024-02-21T00:30:26;23.40;52.30
21425;DHT22;10873;51.132;16.848;2024-02-21T00:32:52;23.40;52.20
21425;DHT22;10873;51.132;16.848;2024-02-21T00:35:18;23.40;52.20
21425;DHT22;10873;51.132;16.848;2024-02-21T00:37:45;23.40;52.20
21425;DHT22;10873;51.132;16.848;2024-02-21T00:40:12;23.40;52.20
21425;DHT22;10873;51.132;16.848;2024-02-21T00:42:38;23.40;52.10
21425;DHT22;10873;51.132;16.848;2024-02-21T00:45:05;23.40;52.00
21425;DHT22;10873;51.132;16.848;2024-02-21T00:47:32;23.40;52.00
21425;DHT22;10873;51.132;16.848;2024-02-21T00:49:59;23.40;52.00
21425;DHT22;10873;51.132;16.848;2024-02-21T00:52:25;23.40;52.00
21425;DHT22;10873;51.132;16.848;2024-02-21T00:54:51;23.40;52.00
21425;DHT22;10873;51.132;16.848;2024-02-21T00:57:17;23.40;52.70
21425;DHT22;10873;51.132;16.848;2024-02-21T00:59:43;23.40;52.00
21425;DHT22;10873;51.132;16.848;2024-02-21T01:02:10;23.50;52.10
21425;DHT22;10873;51.132;16.848;2024-02-21T01:04:39;23.50;52.20
21425;DHT22;10873;51.132;16.848;2024-02-21T01:07:08;23.50;52.10
21425;DHT22;10873;51.132;16.848;2024-02-21T01:09:34;23.50;52.10
21425;DHT22;10873;51.132;16.848;2024-02-21T01:12:02;23.50;52.10
21425;DHT22;10873;51.132;16.848;2024-02-21T01:14:29;23.50;52.10
21425;DHT22;10873;51.132;16.848;2024-02-21T01:16:55;23.50;52.10
21425;DHT22;10873;51.132;16.848;2024-02-21T01:19:22;23.50;52.10
21425;DHT22;10873;51.132;16.848;2024-02-21T01:21:50;23.50;52.10
21425;DHT22;10873;51.132;16.848;2024-02-21T01:24:16;23.50;52.10
21425;DHT22;10873;51.132;16.848;2024-02-21T01:30:29;23.50;52.20
21425;DHT22;10873;51.132;16.848;2024-02-21T01:32:55;23.50;52.20
21425;DHT22;10873;51.132;16.848;2024-02-21T01:35:21;23.50;52.20
21425;DHT22;10873;51.132;16.848;2024-02-21T01:37:47;23.50;52.20
21425;DHT22;10873;51.132;16.848;2024-02-21T01:40:15;23.50;52.30
21425;DHT22;10873;51.132;16.848;2024-02-21T01:42:41;23.50;52.30
21425;DHT22;10873;51.132;16.848;2024-02-21T01:45:07;23.50;52.40
21425;DHT22;10873;51.132;16.848;2024-02-21T01:47:35;23.50;52.30
21425;DHT22;10873;51.132;16.848;2024-02-21T01:50:02;23.50;52.40
21425;DHT22;10873;51.132;16.848;2024-02-21T01:52:29;23.50;52.40
21425;DHT22;10873;51.132;16.848;2024-02-21T01:54:55;23.50;52.40
21425;DHT22;10873;51.132;16.848;2024-02-21T01:57:22;23.50;52.40
21425;DHT22;10873;51.132;16.848;2024-02-21T01:59:48;23.50;52.40
21425;DHT22;10873;51.132;16.848;2024-02-21T02:02:15;23.50;52.30
21425;DHT22;10873;51.132;16.848;2024-02-21T02:04:42;23.50;52.30
21425;DHT22;10873;51.132;16.848;2024-02-21T02:07:09;23.60;52.30
21425;DHT22;10873;51.132;16.848;2024-02-21T02:09:35;23.50;52.20
21425;DHT22;10873;51.132;16.848;2024-02-21T02:12:02;23.60;52.30
21425;DHT22;10873;51.132;16.848;2024-02-21T02:14:28;23.60;52.20
21425;DHT22;10873;51.132;16.848;2024-02-21T02:16:54;23.50;52.20
21425;DHT22;10873;51.132;16.848;2024-02-21T02:19:20;23.50;52.10
21425;DHT22;10873;51.132;16.848;2024-02-21T02:21:54;23.50;52.10
21425;DHT22;10873;51.132;16.848;2024-02-21T02:24:24;23.50;52.10
21425;DHT22;10873;51.132;16.848;2024-02-21T02:26:51;23.50;52.10
21425;DHT22;10873;51.132;16.848;2024-02-21T02:29:17;23.50;52.80
21425;DHT22;10873;51.132;16.848;2024-02-21T02:31:44;23.50;52.10
21425;DHT22;10873;51.132;16.848;2024-02-21T02:34:10;23.50;52.10
21425;DHT22;10873;51.132;16.848;2024-02-21T02:36:36;23.50;52.20
21425;DHT22;10873;51.132;16.848;2024-02-21T02:39:02;23.50;52.10
21425;DHT22;10873;51.132;16.848;2024-02-21T02:41:29;23.60;52.10
21425;DHT22;10873;51.132;16.848;2024-02-21T02:43:55;23.60;52.00
21425;DHT22;10873;51.132;16.848;2024-02-21T02:46:21;23.60;52.10
21425;DHT22;10873;51.132;16.848;2024-02-21T02:48:47;23.60;52.00
21425;DHT22;10873;51.132;16.848;2024-02-21T02:51:13;23.60;51.90
21425;DHT22;10873;51.132;16.848;2024-02-21T02:53:39;23.60;51.90
21425;DHT22;10873;51.132;16.848;2024-02-21T02:56:05;23.60;51.90
21425;DHT22;10873;51.132;16.848;2024-02-21T02:58:32;23.60;51.80
21425;DHT22;10873;51.132;16.848;2024-02-21T03:00:58;23.60;51.80
21425;DHT22;10873;51.132;16.848;2024-02-21T03:03:24;23.60;51.80
21425;DHT22;10873;51.132;16.848;2024-02-21T03:05:50;23.60;51.80
21425;DHT22;10873;51.132;16.848;2024-02-21T03:08:16;23.60;51.80
21425;DHT22;10873;51.132;16.848;2024-02-21T03:10:42;23.60;51.80
21425;DHT22;10873;51.132;16.848;2024-02-21T03:13:08;23.60;52.50
21425;DHT22;10873;51.132;16.848;2024-02-21T03:15:35;23.60;51.80
21425;DHT22;10873;51.132;16.848;2024-02-21T03:18:01;23.60;51.80
21425;DHT22;10873;51.132;16.848;2024-02-21T03:20:27;23.60;51.80
21425;DHT22;10873;51.132;16.848;2024-02-21T03:22:53;23.60;51.90
21425;DHT22;10873;51.132;16.848;2024-02-21T03:25:19;23.60;51.90
21425;DHT22;10873;51.132;16.848;2024-02-21T03:27:45;23.60;51.80
21425;DHT22;10873;51.132;16.848;2024-02-21T03:30:12;23.60;51.80
21425;DHT22;10873;51.132;16.848;2024-02-21T03:32:39;23.60;51.80
21425;DHT22;10873;51.132;16.848;2024-02-21T03:35:06;23.60;51.80
21425;DHT22;10873;51.132;16.848;2024-02-21T03:37:32;23.60;51.70
21425;DHT22;10873;51.132;16.848;2024-02-21T03:39:58;23.60;51.70
21425;DHT22;10873;51.132;16.848;2024-02-21T03:42:24;23.60;51.70
21425;DHT22;10873;51.132;16.848;2024-02-21T03:44:51;23.60;51.70
21425;DHT22;10873;51.132;16.848;2024-02-21T03:47:17;23.60;51.70
21425;DHT22;10873;51.132;16.848;2024-02-21T03:49:43;23.60;51.60
21425;DHT22;10873;51.132;16.848;2024-02-21T03:52:09;23.60;51.60
21425;DHT22;10873;51.132;16.848;2024-02-21T03:54:36;23.60;51.70
21425;DHT22;10873;51.132;16.848;2024-02-21T03:57:02;23.60;51.70
21425;DHT22;10873;51.132;16.848;2024-02-21T03:59:28;23.60;52.30
21425;DHT22;10873;51.132;16.848;2024-02-21T04:01:54;23.60;51.60
21425;DHT22;10873;51.132;16.848;2024-02-21T04:04:21;23.60;51.70
21425;DHT22;10873;51.132;16.848;2024-02-21T04:06:48;23.60;51.70
21425;DHT22;10873;51.132;16.848;2024-02-21T04:09:15;23.60;51.70
21425;DHT22;10873;51.132;16.848;2024-02-21T04:11:40;23.60;51.70
21425;DHT22;10873;51.132;16.848;2024-02-21T04:14:07;23.60;52.00
21425;DHT22;10873;51.132;16.848;2024-02-21T04:16:33;23.60;51.70
21425;DHT22;10873;51.132;16.848;2024-02-21T04:19:00;23.60;51.60
21425;DHT22;10873;51.132;16.848;2024-02-21T04:21:27;23.60;51.60
21425;DHT22;10873;51.132;16.848;2024-02-21T04:23:54;23.60;51.60
21425;DHT22;10873;51.132;16.848;2024-02-21T04:26:21;23.60;51.60
21425;DHT22;10873;51.132;16.848;2024-02-21T04:28:47;23.60;51.60
21425;DHT22;10873;51.132;16.848;2024-02-21T04:31:13;23.60;51.50
21425;DHT22;10873;51.132;16.848;2024-02-21T04:33:39;23.60;51.50
21425;DHT22;10873;51.132;16.848;2024-02-21T04:36:05;23.60;51.50
21425;DHT22;10873;51.132;16.848;2024-02-21T04:38:31;23.60;51.50
21425;DHT22;10873;51.132;16.848;2024-02-21T04:40:58;23.60;51.50
21425;DHT22;10873;51.132;16.848;2024-02-21T04:43:24;23.60;51.50
21425;DHT22;10873;51.132;16.848;2024-02-21T04:45:50;23.60;51.50
21425;DHT22;10873;51.132;16.848;2024-02-21T04:48:17;23.60;51.60
21425;DHT22;10873;51.132;16.848;2024-02-21T04:50:43;23.60;51.60
21425;DHT22;10873;51.132;16.848;2024-02-21T04:53:09;23.60;51.50
21425;DHT22;10873;51.132;16.848;2024-02-21T04:55:35;23.60;51.50
21425;DHT22;10873;51.132;16.848;2024-02-21T04:58:01;23.60;51.50
21425;DHT22;10873;51.132;16.848;2024-02-21T05:00:28;23.70;51.50
21425;DHT22;10873;51.132;16.848;2024-02-21T05:02:54;23.60;51.50
21425;DHT22;10873;51.132;16.848;2024-02-21T05:05:20;23.60;51.50
21425;DHT22;10873;51.132;16.848;2024-02-21T05:07:46;23.60;51.50
21425;DHT22;10873;51.132;16.848;2024-02-21T05:10:12;23.70;51.50
21425;DHT22;10873;51.132;16.848;2024-02-21T05:12:38;23.60;51.50
21425;DHT22;10873;51.132;16.848;2024-02-21T05:15:06;23.60;51.50
21425;DHT22;10873;51.132;16.848;2024-02-21T05:17:32;23.60;51.40
21425;DHT22;10873;51.132;16.848;2024-02-21T05:19:58;23.60;51.50
21425;DHT22;10873;51.132;16.848;2024-02-21T05:22:24;23.60;51.50
21425;DHT22;10873;51.132;16.848;2024-02-21T05:24:50;23.60;51.50
21425;DHT22;10873;51.132;16.848;2024-02-21T05:27:16;23.60;51.50
21425;DHT22;10873;51.132;16.848;2024-02-21T05:29:42;23.70;51.50
21425;DHT22;10873;51.132;16.848;2024-02-21T05:32:09;23.70;51.50
21425;DHT22;10873;51.132;16.848;2024-02-21T05:34:35;23.70;51.50
21425;DHT22;10873;51.132;16.848;2024-02-21T05:37:02;23.70;51.50
21425;DHT22;10873;51.132;16.848;2024-02-21T05:39:28;23.70;51.50
21425;DHT22;10873;51.132;16.848;2024-02-21T05:41:55;23.70;51.50
21425;DHT22;10873;51.132;16.848;2024-02-21T05:44:21;23.70;51.50
21425;DHT22;10873;51.132;16.848;2024-02-21T05:46:48;23.70;51.50
21425;DHT22;10873;51.132;16.848;2024-02-21T05:49:15;23.70;51.50
21425;DHT22;10873;51.132;16.848;2024-02-21T05:51:41;23.70;51.50
21425;DHT22;10873;51.132;16.848;2024-02-21T05:54:07;23.70;51.50
21425;DHT22;10873;51.132;16.848;2024-02-21T05:56:33;23.70;51.50
21425;DHT22;10873;51.132;16.848;2024-02-21T05:58:59;23.70;51.50
21425;DHT22;10873;51.132;16.848;2024-02-21T06:01:26;23.70;51.60
21425;DHT22;10873;51.132;16.848;2024-02-21T06:03:52;23.70;51.60
21425;DHT22;10873;51.132;16.848;2024-02-21T06:06:18;23.70;51.60
21425;DHT22;10873;51.132;16.848;2024-02-21T06:08:44;23.70;51.60
21425;DHT22;10873;51.132;16.848;2024-02-21T06:11:11;23.70;51.60
21425;DHT22;10873;51.132;16.848;2024-02-21T06:13:38;23.70;51.60
21425;DHT22;10873;51.132;16.848;2024-02-21T06:16:06;23.70;51.60
21425;DHT22;10873;51.132;16.848;2024-02-21T06:18:33;23.70;51.50
21425;DHT22;10873;51.132;16.848;2024-02-21T06:21:00;23.70;51.50
21425;DHT22;10873;51.132;16.848;2024-02-21T06:23:26;23.80;51.50
21425;DHT22;10873;51.132;16.848;2024-02-21T06:25:52;23.70;51.50
21425;DHT22;10873;51.132;16.848;2024-02-21T06:28:18;23.70;51.50
21425;DHT22;10873;51.132;16.848;2024-02-21T06:30:44;23.70;51.50
21425;DHT22;10873;51.132;16.848;2024-02-21T06:33:10;23.70;51.50
21425;DHT22;10873;51.132;16.848;2024-02-21T06:35:37;23.70;51.50
21425;DHT22;10873;51.132;16.848;2024-02-21T06:38:06;23.70;51.50
21425;DHT22;10873;51.132;16.848;2024-02-21T06:40:33;23.70;51.60
21425;DHT22;10873;51.132;16.848;2024-02-21T06:43:04;23.70;51.60
21425;DHT22;10873;51.132;16.848;2024-02-21T06:45:30;23.70;51.60
21425;DHT22;10873;51.132;16.848;2024-02-21T06:47:56;23.70;51.60
21425;DHT22;10873;51.132;16.848;2024-02-21T06:50:23;23.70;51.70
21425;DHT22;10873;51.132;16.848;2024-02-21T06:52:48;23.70;51.70
21425;DHT22;10873;51.132;16.848;2024-02-21T06:55:15;23.70;51.70
21425;DHT22;10873;51.132;16.848;2024-02-21T06:57:42;23.70;51.70
21425;DHT22;10873;51.132;16.848;2024-02-21T07:00:09;23.70;51.70
21425;DHT22;10873;51.132;16.848;2024-02-21T07:02:36;23.70;51.60
21425;DHT22;10873;51.132;16.848;2024-02-21T07:05:02;23.80;51.60
21425;DHT22;10873;51.132;16.848;2024-02-21T07:07:28;23.70;52.30
21425;DHT22;10873;51.132;16.848;2024-02-21T07:09:55;23.70;51.60
21425;DHT22;10873;51.132;16.848;2024-02-21T07:12:21;23.70;51.60
21425;DHT22;10873;51.132;16.848;2024-02-21T07:14:48;23.70;51.70
21425;DHT22;10873;51.132;16.848;2024-02-21T07:17:14;23.70;51.70
21425;DHT22;10873;51.132;16.848;2024-02-21T07:19:40;23.70;51.70
21425;DHT22;10873;51.132;16.848;2024-02-21T07:22:06;23.70;51.80
21425;DHT22;10873;51.132;16.848;2024-02-21T07:24:32;23.70;51.80
21425;DHT22;10873;51.132;16.848;2024-02-21T07:26:58;23.70;51.80
21425;DHT22;10873;51.132;16.848;2024-02-21T07:29:30;23.70;51.80
21425;DHT22;10873;51.132;16.848;2024-02-21T07:31:57;23.80;51.90
21425;DHT22;10873;51.132;16.848;2024-02-21T07:34:23;23.80;51.80
21425;DHT22;10873;51.132;16.848;2024-02-21T07:36:49;23.80;51.90
21425;DHT22;10873;51.132;16.848;2024-02-21T07:39:15;23.80;51.80
21425;DHT22;10873;51.132;16.848;2024-02-21T07:41:42;23.80;51.80
21425;DHT22;10873;51.132;16.848;2024-02-21T07:44:11;23.80;51.80
21425;DHT22;10873;51.132;16.848;2024-02-21T07:46:36;23.80;51.80
21425;DHT22;10873;51.132;16.848;2024-02-21T07:49:03;23.80;51.80
21425;DHT22;10873;51.132;16.848;2024-02-21T07:51:29;23.80;51.90
21425;DHT22;10873;51.132;16.848;2024-02-21T07:53:55;23.80;51.90
21425;DHT22;10873;51.132;16.848;2024-02-21T07:56:21;23.80;51.90
21425;DHT22;10873;51.132;16.848;2024-02-21T07:58:48;23.80;51.90
21425;DHT22;10873;51.132;16.848;2024-02-21T08:01:18;23.80;52.00
21425;DHT22;10873;51.132;16.848;2024-02-21T08:03:44;23.80;52.00
21425;DHT22;10873;51.132;16.848;2024-02-21T08:06:12;23.80;52.70
21425;DHT22;10873;51.132;16.848;2024-02-21T08:08:39;23.80;52.00
21425;DHT22;10873;51.132;16.848;2024-02-21T08:11:04;23.80;52.00
21425;DHT22;10873;51.132;16.848;2024-02-21T08:13:31;23.80;52.00
21425;DHT22;10873;51.132;16.848;2024-02-21T08:15:57;23.80;52.00
21425;DHT22;10873;51.132;16.848;2024-02-21T08:18:23;23.80;52.00
21425;DHT22;10873;51.132;16.848;2024-02-21T08:20:49;23.80;52.00
21425;DHT22;10873;51.132;16.848;2024-02-21T08:23:17;23.80;52.00
21425;DHT22;10873;51.132;16.848;2024-02-21T08:25:43;23.80;52.00
21425;DHT22;10873;51.132;16.848;2024-02-21T08:28:10;23.80;52.00
21425;DHT22;10873;51.132;16.848;2024-02-21T08:30:36;23.80;52.00
21425;DHT22;10873;51.132;16.848;2024-02-21T08:33:02;23.80;52.00
21425;DHT22;10873;51.132;16.848;2024-02-21T08:35:29;23.80;52.10
21425;DHT22;10873;51.132;16.848;2024-02-21T08:37:55;23.80;52.20
21425;DHT22;10873;51.132;16.848;2024-02-21T08:40:22;23.80;52.10
21425;DHT22;10873;51.132;16.848;2024-02-21T08:42:48;23.80;52.10
21425;DHT22;10873;51.132;16.848;2024-02-21T08:45:15;23.90;52.10
21425;DHT22;10873;51.132;16.848;2024-02-21T08:47:41;23.90;52.10
21425;DHT22;10873;51.132;16.848;2024-02-21T08:50:08;23.90;52.00
21425;DHT22;10873;51.132;16.848;2024-02-21T08:52:37;23.90;52.00
21425;DHT22;10873;51.132;16.848;2024-02-21T08:55:04;23.90;52.00
21425;DHT22;10873;51.132;16.848;2024-02-21T08:57:31;23.90;52.00
21425;DHT22;10873;51.132;16.848;2024-02-21T09:00:04;23.90;52.10
21425;DHT22;10873;51.132;16.848;2024-02-21T09:02:36;23.90;52.10
21425;DHT22;10873;51.132;16.848;2024-02-21T09:05:03;23.90;52.20
21425;DHT22;10873;51.132;16.848;2024-02-21T09:07:31;23.90;52.20
21425;DHT22;10873;51.132;16.848;2024-02-21T09:09:57;23.90;52.20
21425;DHT22;10873;51.132;16.848;2024-02-21T09:12:23;23.90;52.30
21425;DHT22;10873;51.132;16.848;2024-02-21T09:14:50;23.90;52.30
21425;DHT22;10873;51.132;16.848;2024-02-21T09:17:16;23.90;52.30
21425;DHT22;10873;51.132;16.848;2024-02-21T09:19:46;23.90;52.30
21425;DHT22;10873;51.132;16.848;2024-02-21T09:22:13;23.90;52.30
21425;DHT22;10873;51.132;16.848;2024-02-21T09:24:38;23.90;52.30
21425;DHT22;10873;51.132;16.848;2024-02-21T09:27:05;24.00;52.30
21425;DHT22;10873;51.132;16.848;2024-02-21T09:29:31;24.00;52.90
21425;DHT22;10873;51.132;16.848;2024-02-21T09:31:59;24.00;52.30
21425;DHT22;10873;51.132;16.848;2024-02-21T09:34:26;24.00;52.20
21425;DHT22;10873;51.132;16.848;2024-02-21T09:36:54;24.00;52.30
21425;DHT22;10873;51.132;16.848;2024-02-21T09:39:20;24.00;52.30
21425;DHT22;10873;51.132;16.848;2024-02-21T09:41:50;24.00;52.20
21425;DHT22;10873;51.132;16.848;2024-02-21T09:44:22;24.00;52.20
21425;DHT22;10873;51.132;16.848;2024-02-21T09:47:01;23.90;52.90
21425;DHT22;10873;51.132;16.848;2024-02-21T09:49:31;24.00;52.30
21425;DHT22;10873;51.132;16.848;2024-02-21T09:52:00;23.90;52.30
21425;DHT22;10873;51.132;16.848;2024-02-21T09:54:28;23.90;52.40
21425;DHT22;10873;51.132;16.848;2024-02-21T09:56:56;24.00;52.40
21425;DHT22;10873;51.132;16.848;2024-02-21T09:59:22;24.00;52.40
21425;DHT22;10873;51.132;16.848;2024-02-21T10:01:50;24.00;52.40
21425;DHT22;10873;51.132;16.848;2024-02-21T10:04:16;24.00;52.40
21425;DHT22;10873;51.132;16.848;2024-02-21T10:06:45;24.00;52.70
21425;DHT22;10873;51.132;16.848;2024-02-21T10:09:20;24.00;52.30
21425;DHT22;10873;51.132;16.848;2024-02-21T10:11:46;24.00;52.20
21425;DHT22;10873;51.132;16.848;2024-02-21T10:14:12;24.10;52.30
21425;DHT22;10873;51.132;16.848;2024-02-21T10:16:40;24.10;52.20
21425;DHT22;10873;51.132;16.848;2024-02-21T10:19:06;24.10;52.20
21425;DHT22;10873;51.132;16.848;2024-02-21T10:21:32;24.10;52.20
21425;DHT22;10873;51.132;16.848;2024-02-21T10:23:59;24.10;52.20
21425;DHT22;10873;51.132;16.848;2024-02-21T10:26:25;24.00;52.20
21425;DHT22;10873;51.132;16.848;2024-02-21T10:28:51;24.10;52.20
21425;DHT22;10873;51.132;16.848;2024-02-21T10:31:24;24.10;52.30
21425;DHT22;10873;51.132;16.848;2024-02-21T10:33:54;24.00;52.90
21425;DHT22;10873;51.132;16.848;2024-02-21T10:36:21;24.00;52.90
21425;DHT22;10873;51.132;16.848;2024-02-21T10:38:47;24.00;52.30
21425;DHT22;10873;51.132;16.848;2024-02-21T10:41:14;24.00;52.30
21425;DHT22;10873;51.132;16.848;2024-02-21T10:43:46;24.00;52.30
21425;DHT22;10873;51.132;16.848;2024-02-21T10:46:18;24.00;52.40
21425;DHT22;10873;51.132;16.848;2024-02-21T10:48:45;24.00;52.40
21425;DHT22;10873;51.132;16.848;2024-02-21T10:51:16;24.10;52.40
21425;DHT22;10873;51.132;16.848;2024-02-21T10:53:45;24.10;52.40
21425;DHT22;10873;51.132;16.848;2024-02-21T10:56:22;24.10;52.30
21425;DHT22;10873;51.132;16.848;2024-02-21T10:58:51;24.10;52.30
21425;DHT22;10873;51.132;16.848;2024-02-21T11:01:18;24.10;52.30
21425;DHT22;10873;51.132;16.848;2024-02-21T11:03:46;24.10;52.30
21425;DHT22;10873;51.132;16.848;2024-02-21T11:06:13;24.10;52.30
21425;DHT22;10873;51.132;16.848;2024-02-21T11:08:39;24.10;52.30
21425;DHT22;10873;51.132;16.848;2024-02-21T11:11:05;24.10;52.30
21425;DHT22;10873;51.132;16.848;2024-02-21T11:13:34;24.10;52.30
21425;DHT22;10873;51.132;16.848;2024-02-21T11:16:08;24.10;52.30
21425;DHT22;10873;51.132;16.848;2024-02-21T11:18:35;24.10;52.40
21425;DHT22;10873;51.132;16.848;2024-02-21T11:21:01;24.10;52.40
21425;DHT22;10873;51.132;16.848;2024-02-21T11:23:28;24.10;52.40
21425;DHT22;10873;51.132;16.848;2024-02-21T11:26:04;24.10;52.40
21425;DHT22;10873;51.132;16.848;2024-02-21T11:28:30;24.10;52.40
21425;DHT22;10873;51.132;16.848;2024-02-21T11:31:07;24.10;52.40
21425;DHT22;10873;51.132;16.848;2024-02-21T11:33:33;24.10;52.40
21425;DHT22;10873;51.132;16.848;2024-02-21T11:35:59;24.10;52.40
21425;DHT22;10873;51.132;16.848;2024-02-21T11:38:25;24.20;52.40
21425;DHT22;10873;51.132;16.848;2024-02-21T11:40:51;24.10;52.40
21425;DHT22;10873;51.132;16.848;2024-02-21T11:43:17;24.20;52.40
21425;DHT22;10873;51.132;16.848;2024-02-21T11:45:44;24.10;52.30
21425;DHT22;10873;51.132;16.848;2024-02-21T11:48:10;24.10;52.30
21425;DHT22;10873;51.132;16.848;2024-02-21T11:50:37;24.20;52.40
21425;DHT22;10873;51.132;16.848;2024-02-21T11:53:05;24.20;52.40
21425;DHT22;10873;51.132;16.848;2024-02-21T11:55:31;24.20;52.40
21425;DHT22;10873;51.132;16.848;2024-02-21T11:57:58;24.20;52.40
21425;DHT22;10873;51.132;16.848;2024-02-21T12:00:25;24.10;52.40
21425;DHT22;10873;51.132;16.848;2024-02-21T12:02:51;24.20;52.40
21425;DHT22;10873;51.132;16.848;2024-02-21T12:05:19;24.20;52.40
21425;DHT22;10873;51.132;16.848;2024-02-21T12:07:46;24.20;52.40
21425;DHT22;10873;51.132;16.848;2024-02-21T12:10:12;24.20;52.40
21425;DHT22;10873;51.132;16.848;2024-02-21T12:12:39;24.20;52.30
21425;DHT22;10873;51.132;16.848;2024-02-21T12:15:06;24.20;52.30
21425;DHT22;10873;51.132;16.848;2024-02-21T12:17:33;24.20;52.20
21425;DHT22;10873;51.132;16.848;2024-02-21T12:20:01;24.20;52.20
21425;DHT22;10873;51.132;16.848;2024-02-21T12:22:27;24.20;52.20
21425;DHT22;10873;51.132;16.848;2024-02-21T12:24:54;24.30;52.20
21425;DHT22;10873;51.132;16.848;2024-02-21T12:27:20;24.30;52.20
21425;DHT22;10873;51.132;16.848;2024-02-21T12:29:48;24.30;52.20
21425;DHT22;10873;51.132;16.848;2024-02-21T12:32:14;24.30;52.20
21425;DHT22;10873;51.132;16.848;2024-02-21T12:34:40;24.30;52.20
21425;DHT22;10873;51.132;16.848;2024-02-21T12:37:06;24.30;52.20
21425;DHT22;10873;51.132;16.848;2024-02-21T12:39:33;24.30;52.10
21425;DHT22;10873;51.132;16.848;2024-02-21T12:41:59;24.30;52.20
21425;DHT22;10873;51.132;16.848;2024-02-21T12:44:26;24.30;52.20
21425;DHT22;10873;51.132;16.848;2024-02-21T12:46:52;24.30;52.20
21425;DHT22;10873;51.132;16.848;2024-02-21T12:49:20;24.20;52.10
21425;DHT22;10873;51.132;16.848;2024-02-21T12:51:46;24.20;52.10
21425;DHT22;10873;51.132;16.848;2024-02-21T12:54:15;24.20;52.20
21425;DHT22;10873;51.132;16.848;2024-02-21T12:56:41;24.20;52.20
21425;DHT22;10873;51.132;16.848;2024-02-21T12:59:07;24.20;52.20
21425;DHT22;10873;51.132;16.848;2024-02-21T13:01:34;24.20;52.20
21425;DHT22;10873;51.132;16.848;2024-02-21T13:04:01;24.30;52.20
21425;DHT22;10873;51.132;16.848;2024-02-21T13:06:27;24.30;52.20
21425;DHT22;10873;51.132;16.848;2024-02-21T13:08:53;24.30;52.10
21425;DHT22;10873;51.132;16.848;2024-02-21T13:11:20;24.30;52.10
21425;DHT22;10873;51.132;16.848;2024-02-21T13:13:47;24.30;52.10
21425;DHT22;10873;51.132;16.848;2024-02-21T13:16:13;24.30;52.20
21425;DHT22;10873;51.132;16.848;2024-02-21T13:18:39;24.30;52.00
21425;DHT22;10873;51.132;16.848;2024-02-21T13:21:05;24.30;52.00
21425;DHT22;10873;51.132;16.848;2024-02-21T13:23:32;24.30;52.10
21425;DHT22;10873;51.132;16.848;2024-02-21T13:25:58;24.30;52.00
21425;DHT22;10873;51.132;16.848;2024-02-21T13:28:25;24.30;52.00
21425;DHT22;10873;51.132;16.848;2024-02-21T13:30:51;24.30;52.00
21425;DHT22;10873;51.132;16.848;2024-02-21T13:33:17;24.30;52.10
21425;DHT22;10873;51.132;16.848;2024-02-21T13:35:44;24.30;52.00
21425;DHT22;10873;51.132;16.848;2024-02-21T13:38:10;24.30;52.00
21425;DHT22;10873;51.132;16.848;2024-02-21T13:40:36;24.30;52.00
21425;DHT22;10873;51.132;16.848;2024-02-21T13:43:03;24.20;52.00
21425;DHT22;10873;51.132;16.848;2024-02-21T13:45:29;24.30;52.00
21425;DHT22;10873;51.132;16.848;2024-02-21T13:47:57;24.30;52.00
21425;DHT22;10873;51.132;16.848;2024-02-21T13:50:25;24.30;51.90
21425;DHT22;10873;51.132;16.848;2024-02-21T13:52:55;24.30;51.90
21425;DHT22;10873;51.132;16.848;2024-02-21T13:55:21;24.30;51.80
21425;DHT22;10873;51.132;16.848;2024-02-21T13:57:48;24.30;51.80
21425;DHT22;10873;51.132;16.848;2024-02-21T14:00:15;24.30;51.70
21425;DHT22;10873;51.132;16.848;2024-02-21T14:02:42;24.30;51.70
21425;DHT22;10873;51.132;16.848;2024-02-21T14:05:08;24.40;52.40
21425;DHT22;10873;51.132;16.848;2024-02-21T14:07:35;24.40;51.70
21425;DHT22;10873;51.132;16.848;2024-02-21T14:10:00;24.40;51.70
21425;DHT22;10873;51.132;16.848;2024-02-21T14:12:27;24.40;51.70
21425;DHT22;10873;51.132;16.848;2024-02-21T14:14:53;24.40;51.70
21425;DHT22;10873;51.132;16.848;2024-02-21T14:17:19;24.30;51.70
21425;DHT22;10873;51.132;16.848;2024-02-21T14:19:45;24.30;51.70
21425;DHT22;10873;51.132;16.848;2024-02-21T14:22:12;24.30;51.70
21425;DHT22;10873;51.132;16.848;2024-02-21T14:24:38;24.30;51.70
21425;DHT22;10873;51.132;16.848;2024-02-21T14:27:05;24.30;51.70
21425;DHT22;10873;51.132;16.848;2024-02-21T14:29:30;24.30;51.70
21425;DHT22;10873;51.132;16.848;2024-02-21T14:31:57;24.30;51.70
21425;DHT22;10873;51.132;16.848;2024-02-21T14:34:22;24.30;51.70
21425;DHT22;10873;51.132;16.848;2024-02-21T14:36:49;24.30;51.70
21425;DHT22;10873;51.132;16.848;2024-02-21T14:39:15;24.40;51.70
21425;DHT22;10873;51.132;16.848;2024-02-21T14:41:42;24.40;51.70
21425;DHT22;10873;51.132;16.848;2024-02-21T14:44:09;24.40;51.70
21425;DHT22;10873;51.132;16.848;2024-02-21T14:46:37;24.40;51.70
21425;DHT22;10873;51.132;16.848;2024-02-21T14:49:04;24.40;51.70
21425;DHT22;10873;51.132;16.848;2024-02-21T14:51:30;24.40;51.70
21425;DHT22;10873;51.132;16.848;2024-02-21T14:53:56;24.40;51.60
21425;DHT22;10873;51.132;16.848;2024-02-21T14:56:23;24.40;51.70
21425;DHT22;10873;51.132;16.848;2024-02-21T14:58:49;24.40;51.60
21425;DHT22;10873;51.132;16.848;2024-02-21T15:01:16;24.40;51.60
21425;DHT22;10873;51.132;16.848;2024-02-21T15:03:42;24.40;51.60
21425;DHT22;10873;51.132;16.848;2024-02-21T15:06:09;24.40;51.60
21425;DHT22;10873;51.132;16.848;2024-02-21T15:08:35;24.40;51.60
21425;DHT22;10873;51.132;16.848;2024-02-21T15:11:02;24.40;51.70
21425;DHT22;10873;51.132;16.848;2024-02-21T15:13:29;24.40;51.70
21425;DHT22;10873;51.132;16.848;2024-02-21T15:15:56;24.40;51.70